createdAt,value
2019-04-21T00:01:12.668Z,7.00
2019-04-21T05:34:04.107Z,6.24
2019-04-21T05:36:53.922Z,6.29
2019-04-21T05:39:41.944Z,6.46
2019-04-21T05:42:08.137Z,6.50
2019-04-21T05:44:58.784Z,6.61
2019-04-21T05:50:07.772Z,6.73
2019-04-21T05:52:47.398Z,6.80
2019-04-21T05:55:33.409Z,6.88
2019-04-21T05:57:58.514Z,6.95
2019-04-21T06:00:55.864Z,7.09
2019-04-21T06:03:09.952Z,7.15
2019-04-21T06:05:42.516Z,7.30
2019-04-21T06:08:15.789Z,7.41
2019-04-21T06:10:47.323Z,7.54
2019-04-21T06:13:18.723Z,7.63
2019-04-21T06:18:28.893Z,7.89
2019-04-21T06:20:58.019Z,7.99
2019-04-21T06:23:26.484Z,8.00
2019-04-21T06:26:28.179Z,8.08
2019-04-21T06:28:38.960Z,8.16
2019-04-21T06:31:27.176Z,8.20
2019-04-21T06:36:31.771Z,8.45
2019-04-21T06:39:08.683Z,8.56
2019-04-21T06:44:08.195Z,8.70
2019-04-21T06:46:37.982Z,8.78
2019-04-21T06:49:06.773Z,8.85
2019-04-21T06:51:37.155Z,8.99
2019-04-21T06:54:30.612Z,9.07
2019-04-21T06:56:48.366Z,9.17
2019-04-21T06:59:16.421Z,9.32
2019-04-21T07:01:55.281Z,9.41
2019-04-21T07:04:36.525Z,9.56
2019-04-21T07:06:57.484Z,9.66
2019-04-21T07:09:43.524Z,9.67
2019-04-21T07:11:59.784Z,9.70
2019-04-21T07:14:34.642Z,9.80
2019-04-21T07:17:15.645Z,9.81
2019-04-21T07:19:41.021Z,9.86
2019-04-21T07:22:11.123Z,10.05
2019-04-21T07:24:46.125Z,10.05
2019-04-21T07:27:15.198Z,10.14
2019-04-21T07:29:50.602Z,10.24
2019-04-21T07:32:15.319Z,10.23
2019-04-21T07:34:51.813Z,10.34
2019-04-21T07:37:23.827Z,10.55
2019-04-21T07:39:53.180Z,10.69
2019-04-21T07:42:24.374Z,10.71
2019-04-21T07:44:54.707Z,10.79
2019-04-21T07:47:47.757Z,10.81
2019-04-21T07:50:24.862Z,10.99
2019-04-21T07:53:07.634Z,11.12
2019-04-21T07:58:12.880Z,11.46
2019-04-21T08:03:15.400Z,11.49
2019-04-21T08:05:52.676Z,11.55
2019-04-21T08:08:19.073Z,11.64
2019-04-21T08:10:52.331Z,11.63
2019-04-21T08:13:34.271Z,11.91
2019-04-21T08:16:02.112Z,11.91
2019-04-21T08:18:28.679Z,11.86
2019-04-21T08:21:02.711Z,11.93
2019-04-21T08:23:34.047Z,12.12
2019-04-21T08:26:04.750Z,12.30
2019-04-21T08:28:43.759Z,12.54
2019-04-21T08:31:10.313Z,12.59
2019-04-21T08:33:51.402Z,12.63
2019-04-21T08:36:28.051Z,12.71
2019-04-21T08:38:51.474Z,12.79
2019-04-21T08:41:18.823Z,12.79
2019-04-21T08:43:55.042Z,13.01
2019-04-21T08:46:27.291Z,13.37
2019-04-21T08:48:57.945Z,13.36
2019-04-21T08:54:07.487Z,13.54
2019-04-21T08:57:04.065Z,13.74
2019-04-21T09:00:01.363Z,13.80
2019-04-21T09:02:47.347Z,13.94
2019-04-21T09:05:17.544Z,14.31
2019-04-21T09:07:55.277Z,14.41
2019-04-21T09:10:22.019Z,14.50
2019-04-21T09:12:52.257Z,14.59
2019-04-21T09:15:27.738Z,14.60
2019-04-21T09:17:54.995Z,14.74
2019-04-21T09:20:33.284Z,15.05
2019-04-21T09:23:06.407Z,15.24
2019-04-21T09:25:43.248Z,15.39
2019-04-21T09:28:07.056Z,15.60
2019-04-21T09:30:22.021Z,15.74
2019-04-21T09:32:56.382Z,15.66
2019-04-21T09:35:47.476Z,15.81
2019-04-21T09:38:22.725Z,15.80
2019-04-21T09:40:49.034Z,15.63
2019-04-21T09:43:27.038Z,15.70
2019-04-21T09:45:49.622Z,15.62
2019-04-21T09:48:22.873Z,15.81
2019-04-21T09:50:53.013Z,15.66
2019-04-21T09:53:31.243Z,15.87
2019-04-21T09:56:00.961Z,16.03
2019-04-21T09:58:34.714Z,16.03
2019-04-21T10:01:12.260Z,16.14
2019-04-21T10:03:41.232Z,16.14
2019-04-21T10:06:04.842Z,16.31
2019-04-21T10:08:36.392Z,16.46
2019-04-21T10:11:07.756Z,16.34
2019-04-21T10:13:39.772Z,16.31
2019-04-21T10:16:28.265Z,16.52
2019-04-21T10:18:58.914Z,16.59
2019-04-21T10:21:29.516Z,16.68
2019-04-21T10:23:59.995Z,16.82
2019-04-21T10:26:30.571Z,17.05
2019-04-21T10:29:08.130Z,17.17
2019-04-21T10:31:34.543Z,17.26
2019-04-21T10:34:05.343Z,17.30
2019-04-21T10:36:36.946Z,17.37
2019-04-21T10:39:09.391Z,17.61
2019-04-21T10:41:41.415Z,17.60
2019-04-21T10:44:13.467Z,17.53
2019-04-21T10:46:46.925Z,17.62
2019-04-21T10:49:17.063Z,17.73
2019-04-21T10:51:48.805Z,17.59
2019-04-21T10:54:20.083Z,17.58
2019-04-21T10:56:50.920Z,17.89
2019-04-21T10:59:23.109Z,17.84
2019-04-21T11:01:54.812Z,17.91
2019-04-21T11:04:33.695Z,17.90
2019-04-21T11:07:08.777Z,17.84
2019-04-21T11:09:36.197Z,17.89
2019-04-21T11:12:08.148Z,18.04
2019-04-21T11:14:38.995Z,18.29
2019-04-21T11:17:10.173Z,18.13
2019-04-21T11:19:41.110Z,18.07
2019-04-21T11:22:12.677Z,18.15
2019-04-21T11:24:43.338Z,18.22
2019-04-21T11:27:14.988Z,18.45
2019-04-21T11:29:45.589Z,18.65
2019-04-21T11:32:16.850Z,18.77
2019-04-21T11:34:47.374Z,18.72
2019-04-21T11:37:19.952Z,18.75
2019-04-21T11:39:59.299Z,18.66
2019-04-21T11:42:33.693Z,18.80
2019-04-21T11:45:06.226Z,18.87
2019-04-21T11:47:42.691Z,18.80
2019-04-21T11:50:14.884Z,18.91
2019-04-21T11:52:45.439Z,19.15
2019-04-21T11:55:16.587Z,19.35
2019-04-21T11:57:49.762Z,19.43
2019-04-21T12:00:19.860Z,19.51
2019-04-21T12:02:51.180Z,19.61
2019-04-21T12:05:23.516Z,19.66
2019-04-21T12:07:58.234Z,19.86
2019-04-21T12:10:27.143Z,20.05
2019-04-21T12:12:57.666Z,20.23
2019-04-21T12:15:29.168Z,20.28
2019-04-21T12:18:01.662Z,20.59
2019-04-21T12:20:33.440Z,20.77
2019-04-21T12:23:04.645Z,21.06
2019-04-21T12:25:39.015Z,21.41
2019-04-21T12:28:10.048Z,21.91
2019-04-21T12:30:41.931Z,22.26
2019-04-21T12:33:43.820Z,24.41
2019-04-21T12:36:15.834Z,26.87
2019-04-21T12:38:50.880Z,28.97
2019-04-21T12:41:18.778Z,29.71
2019-04-21T12:43:50.476Z,30.40
2019-04-21T12:46:22.101Z,30.18
2019-04-21T12:48:53.738Z,31.35
2019-04-21T12:51:25.858Z,32.57
2019-04-21T12:53:57.426Z,33.41
2019-04-21T12:56:29.208Z,33.18
2019-04-21T12:59:00.008Z,32.43
2019-04-21T13:01:30.781Z,33.24
2019-04-21T13:04:01.815Z,33.31
2019-04-21T13:06:33.761Z,34.06
2019-04-21T13:09:10.416Z,34.72
2019-04-21T13:11:37.590Z,35.03
2019-04-21T13:14:08.290Z,34.10
2019-04-21T13:16:39.681Z,34.55
2019-04-21T13:19:11.372Z,34.09
2019-04-21T13:21:42.384Z,33.24
2019-04-21T13:24:13.750Z,33.97
2019-04-21T13:26:51.131Z,32.14
2019-04-21T13:29:16.661Z,32.46
2019-04-21T13:31:48.115Z,32.63
2019-04-21T13:34:20.009Z,33.21
2019-04-21T13:36:51.780Z,32.63
2019-04-21T13:40:18.177Z,32.23
2019-04-21T13:42:35.731Z,32.22
2019-04-21T13:45:02.179Z,32.38
2019-04-21T13:47:32.378Z,32.94
2019-04-21T13:50:06.332Z,33.92
2019-04-21T13:52:36.535Z,34.15
2019-04-21T13:55:07.808Z,34.43
2019-04-21T13:57:38.819Z,33.39
2019-04-21T14:00:11.001Z,33.11
2019-04-21T14:02:42.666Z,32.19
2019-04-21T14:05:15.825Z,33.00
2019-04-21T14:07:46.438Z,33.92
2019-04-21T14:10:18.051Z,35.29
2019-04-21T14:12:48.948Z,33.31
2019-04-21T14:15:20.333Z,33.91
2019-04-21T14:17:50.988Z,34.69
2019-04-21T14:20:21.729Z,34.35
2019-04-21T14:22:52.289Z,34.11
2019-04-21T14:25:23.893Z,34.23
2019-04-21T14:27:56.072Z,33.78
2019-04-21T14:30:28.417Z,35.48
2019-04-21T14:33:00.295Z,35.28
2019-04-21T14:35:30.949Z,35.20
2019-04-21T14:38:02.718Z,34.33
2019-04-21T14:40:35.062Z,33.67
2019-04-21T14:43:05.945Z,33.51
2019-04-21T14:45:54.748Z,34.35
2019-04-21T14:48:43.176Z,34.06
2019-04-21T14:51:31.658Z,34.08
2019-04-21T14:54:08.316Z,34.28
2019-04-21T14:56:39.650Z,32.82
2019-04-21T14:59:10.979Z,32.97
2019-04-21T15:01:41.954Z,32.60
2019-04-21T15:04:15.333Z,32.20
2019-04-21T15:06:45.524Z,32.05
2019-04-21T15:09:16.204Z,32.63
2019-04-21T15:11:47.695Z,32.69
2019-04-21T15:14:19.991Z,33.48
2019-04-21T15:16:51.260Z,34.11
2019-04-21T15:19:22.421Z,33.21
2019-04-21T15:21:54.280Z,33.48
2019-04-21T15:24:26.522Z,33.62
2019-04-21T15:26:57.129Z,34.33
2019-04-21T15:29:28.803Z,34.32
2019-04-21T15:32:00.872Z,34.20
2019-04-21T15:34:31.949Z,33.89
2019-04-21T15:37:03.998Z,32.88
2019-04-21T15:39:34.614Z,32.89
2019-04-21T15:42:06.227Z,33.60
2019-04-21T15:44:36.828Z,32.17
2019-04-21T15:47:08.202Z,33.13
2019-04-21T15:50:04.665Z,32.67
2019-04-21T15:52:30.013Z,32.72
2019-04-21T15:55:34.937Z,32.82
2019-04-21T15:58:14.577Z,31.91
2019-04-21T16:00:54.423Z,32.05
2019-04-21T16:03:25.001Z,30.94
2019-04-21T16:05:55.803Z,30.98
2019-04-21T16:08:27.080Z,31.32
2019-04-21T16:11:00.753Z,30.40
2019-04-21T16:13:29.998Z,30.40
2019-04-21T16:16:00.533Z,31.26
2019-04-21T16:18:32.178Z,30.96
2019-04-21T16:21:04.269Z,31.01
2019-04-21T16:23:36.649Z,31.44
2019-04-21T16:26:08.626Z,31.59
2019-04-21T16:28:39.613Z,32.48
2019-04-21T16:31:10.245Z,30.60
2019-04-21T16:33:41.085Z,30.05
2019-04-21T16:36:13.235Z,29.95
2019-04-21T16:38:43.887Z,29.54
2019-04-21T16:41:14.391Z,29.21
2019-04-21T16:43:45.054Z,28.50
2019-04-21T16:46:15.823Z,28.28
2019-04-21T16:48:46.373Z,27.98
2019-04-21T16:51:18.065Z,27.49
2019-04-21T16:53:57.703Z,27.71
2019-04-21T16:56:57.534Z,27.76
2019-04-21T16:59:34.717Z,27.09
2019-04-21T17:02:06.932Z,27.24
2019-04-21T17:04:38.234Z,26.55
2019-04-21T17:07:09.205Z,25.71
2019-04-21T17:09:40.931Z,26.16
2019-04-21T17:12:14.284Z,25.87
2019-04-21T17:14:57.102Z,25.29
2019-04-21T17:17:38.114Z,25.73
2019-04-21T17:19:51.221Z,25.41
2019-04-21T17:22:19.714Z,24.74
2019-04-21T17:24:50.431Z,23.70
2019-04-21T17:27:20.832Z,22.80
2019-04-21T17:29:50.646Z,21.87
2019-04-21T17:32:27.273Z,21.70
2019-04-21T17:34:54.109Z,21.18
2019-04-21T17:37:26.818Z,20.89
2019-04-21T17:39:58.745Z,20.49
2019-04-21T17:42:36.396Z,20.11
2019-04-21T17:45:03.519Z,19.41
2019-04-21T17:47:45.741Z,18.86
2019-04-21T17:50:19.595Z,19.04
2019-04-21T17:53:00.900Z,18.48
2019-04-21T17:55:31.592Z,17.99
2019-04-21T17:58:14.870Z,17.99
2019-04-21T18:01:12.841Z,17.66
2019-04-21T18:03:40.758Z,17.71
2019-04-21T18:05:59.462Z,17.41
2019-04-21T18:08:38.661Z,16.92
2019-04-21T18:11:00.277Z,16.92
2019-04-21T18:13:23.460Z,16.74
2019-04-21T18:16:06.084Z,16.64
2019-04-21T18:18:26.525Z,16.24
2019-04-21T18:21:02.878Z,16.18
2019-04-21T18:23:46.868Z,16.08
2019-04-21T18:26:25.968Z,16.15
2019-04-21T18:28:44.368Z,16.00
2019-04-21T18:31:16.397Z,15.56
2019-04-21T18:34:08.542Z,15.62
2019-04-21T18:37:05.505Z,15.38
2019-04-21T18:40:05.795Z,15.32
2019-04-21T18:42:47.181Z,14.97
2019-04-21T18:45:48.072Z,14.79
2019-04-21T18:48:22.161Z,14.61
2019-04-21T18:50:57.032Z,14.65
2019-04-21T18:54:06.279Z,14.53
2019-04-21T18:56:20.620Z,14.14
2019-04-21T18:58:50.943Z,14.30
2019-04-21T19:01:27.733Z,14.14
2019-04-21T19:03:56.131Z,14.11
2019-04-21T19:06:43.891Z,13.91
2019-04-21T19:09:19.590Z,13.90
2019-04-21T19:11:48.209Z,13.53
2019-04-21T19:17:10.747Z,13.40
2019-04-21T19:22:04.391Z,13.34
2019-04-21T19:24:38.863Z,13.24
2019-04-21T19:27:14.379Z,13.08
2019-04-21T19:29:42.754Z,12.99
2019-04-21T19:32:16.572Z,12.91
2019-04-21T19:34:33.718Z,12.80
2019-04-21T19:37:08.678Z,12.89
2019-04-21T19:39:42.813Z,12.77
2019-04-21T19:42:18.584Z,12.70
2019-04-21T19:44:52.139Z,12.52
2019-04-21T19:47:27.865Z,12.39
2019-04-21T19:50:00.250Z,12.39
2019-04-21T19:52:26.526Z,12.48
2019-04-21T19:54:50.014Z,12.38
2019-04-21T19:57:18.772Z,12.31
2019-04-21T19:59:54.963Z,12.24
2019-04-21T20:02:22.418Z,12.19
2019-04-21T20:05:01.497Z,12.20
2019-04-21T20:07:41.533Z,12.08
2019-04-21T20:10:22.633Z,12.01
2019-04-21T20:12:47.493Z,11.93
2019-04-21T20:15:26.132Z,11.75
2019-04-21T20:17:50.179Z,11.85
2019-04-21T20:20:08.945Z,11.72
2019-04-21T20:22:43.595Z,11.67
2019-04-21T20:25:17.227Z,11.65
2019-04-21T20:27:56.796Z,11.61
2019-04-21T20:30:39.797Z,11.66
2019-04-21T20:33:31.874Z,11.62
2019-04-21T20:35:44.856Z,11.45
2019-04-21T20:38:06.459Z,11.61
2019-04-21T20:40:35.642Z,11.41
2019-04-21T20:43:19.315Z,11.41
2019-04-21T20:45:55.653Z,11.24
2019-04-21T20:48:13.862Z,11.21
2019-04-21T20:50:57.369Z,11.10
2019-04-21T20:53:25.999Z,11.06
2019-04-21T20:55:52.775Z,11.10
2019-04-21T20:58:28.398Z,11.02
2019-04-21T21:01:20.924Z,11.02
2019-04-21T21:03:35.305Z,10.89
2019-04-21T21:06:02.424Z,10.98
2019-04-21T21:08:40.022Z,10.90
2019-04-21T21:11:08.160Z,10.88
2019-04-21T21:13:49.059Z,10.88
2019-04-21T21:16:19.964Z,10.66
2019-04-21T21:21:20.728Z,10.74
2019-04-21T21:23:53.067Z,10.64
2019-04-21T21:26:26.892Z,10.56
2019-04-21T21:28:52.513Z,10.50
2019-04-21T21:31:30.747Z,10.47
2019-04-21T21:34:25.728Z,10.52
2019-04-21T21:36:36.543Z,10.41
2019-04-21T21:39:09.141Z,10.36
2019-04-21T21:41:31.369Z,10.23
2019-04-21T21:44:03.947Z,10.25
2019-04-21T21:46:42.721Z,10.23
2019-04-21T21:49:07.466Z,10.21
2019-04-21T21:51:45.067Z,10.18
2019-04-21T21:54:04.785Z,10.21
2019-04-21T21:56:36.528Z,10.20
2019-04-21T21:59:15.989Z,10.25
2019-04-21T22:01:45.739Z,10.16
2019-04-21T22:04:18.939Z,10.16
2019-04-21T22:06:50.677Z,10.32
2019-04-21T22:09:16.886Z,10.27
2019-04-21T22:11:49.556Z,10.38
2019-04-21T22:14:25.858Z,10.42
2019-04-21T22:17:10.642Z,10.33
2019-04-21T22:19:42.837Z,10.49
2019-04-21T22:22:13.999Z,10.59
2019-04-21T22:24:48.112Z,10.59
2019-04-21T22:27:01.183Z,10.63
2019-04-21T22:29:36.335Z,10.52
2019-04-21T22:32:11.426Z,10.49
2019-04-21T22:34:46.445Z,10.48
2019-04-21T22:37:26.216Z,10.56
2019-04-21T22:39:53.333Z,10.59
2019-04-21T22:42:21.116Z,10.62
2019-04-21T22:44:46.245Z,10.50
2019-04-21T22:47:23.696Z,10.51
2019-04-21T22:49:50.517Z,10.47
2019-04-21T22:52:25.858Z,10.39
2019-04-21T22:54:54.162Z,10.34
2019-04-21T22:57:28.904Z,10.46
2019-04-21T23:00:03.091Z,10.28
2019-04-21T23:02:33.307Z,10.32
2019-04-21T23:05:03.988Z,10.31
2019-04-21T23:07:44.155Z,10.34
2019-04-21T23:10:07.452Z,10.22
2019-04-21T23:12:40.813Z,10.18
2019-04-21T23:15:15.322Z,10.26
2019-04-21T23:17:59.303Z,10.16
2019-04-21T23:20:31.557Z,10.31
2019-04-21T23:23:11.794Z,10.21
2019-04-21T23:25:39.222Z,10.31
2019-04-21T23:28:09.129Z,10.33
2019-04-21T23:30:50.278Z,10.28
2019-04-21T23:33:04.561Z,10.16
2019-04-21T23:35:36.358Z,10.23
2019-04-21T23:38:05.340Z,10.21
2019-04-21T23:40:35.184Z,10.06
2019-04-21T23:43:09.587Z,10.10
2019-04-21T23:45:41.280Z,10.06
2019-04-21T23:48:21.712Z,10.12
2019-04-21T23:50:51.466Z,9.87
2019-04-21T23:53:15.438Z,9.84
2019-04-21T23:55:47.326Z,9.81
2019-04-21T23:58:25.083Z,9.73
